createdAt,value
2017-05-17T00:01:53.377Z,16.90
2017-05-17T00:04:21.469Z,18.78
2017-05-17T00:06:49.023Z,18.94
2017-05-17T00:09:16.538Z,17.94
2017-05-17T00:11:44.554Z,16.30
2017-05-17T00:14:12.100Z,19.50
2017-05-17T00:16:40.048Z,16.58
2017-05-17T00:19:08.021Z,16.68
2017-05-17T00:21:35.955Z,17.24
2017-05-17T00:24:03.899Z,14.98
2017-05-17T00:26:31.864Z,14.90
2017-05-17T00:28:59.412Z,14.90
2017-05-17T00:31:27.360Z,14.90
2017-05-17T00:33:54.929Z,14.88
2017-05-17T00:36:34.726Z,14.50
2017-05-17T00:39:14.099Z,20.64
2017-05-17T00:41:53.517Z,14.32
2017-05-17T00:44:33.297Z,15.20
2017-05-17T00:47:13.072Z,16.14
2017-05-17T00:49:52.607Z,14.54
2017-05-17T00:52:20.596Z,14.70
2017-05-17T00:54:48.144Z,14.74
2017-05-17T00:57:15.716Z,16.18
2017-05-17T00:59:43.265Z,17.34
2017-05-17T01:02:11.207Z,18.44
2017-05-17T01:04:38.781Z,19.36
2017-05-17T01:07:06.320Z,20.38
2017-05-17T01:09:34.276Z,18.94
2017-05-17T01:12:02.248Z,18.52
2017-05-17T01:14:29.800Z,20.62
2017-05-17T01:16:57.344Z,18.00
2017-05-17T01:19:24.976Z,19.34
2017-05-17T01:21:52.883Z,17.30
2017-05-17T01:24:20.889Z,17.84
2017-05-17T01:26:48.851Z,18.52
2017-05-17T01:29:16.402Z,20.92
2017-05-17T01:31:43.948Z,24.74
2017-05-17T01:34:11.529Z,25.20
2017-05-17T01:36:39.100Z,30.62
2017-05-17T01:39:06.677Z,28.92
2017-05-17T01:41:34.652Z,28.24
2017-05-17T01:44:02.599Z,27.44
2017-05-17T01:46:30.153Z,25.50
2017-05-17T01:48:57.720Z,24.26
2017-05-17T01:51:25.660Z,23.20
2017-05-17T01:53:53.220Z,23.58
2017-05-17T01:56:20.795Z,23.58
2017-05-17T01:58:48.341Z,23.20
2017-05-17T02:01:15.883Z,25.10
2017-05-17T02:03:43.853Z,22.62
2017-05-17T02:06:11.796Z,22.44
2017-05-17T02:08:39.357Z,21.80
2017-05-17T02:11:07.327Z,21.06
2017-05-17T02:13:34.868Z,21.94
2017-05-17T02:16:02.821Z,22.20
2017-05-17T02:18:30.407Z,21.76
2017-05-17T02:20:58.348Z,22.22
2017-05-17T02:23:25.856Z,21.92
2017-05-17T02:25:53.459Z,21.16
2017-05-17T02:28:21.012Z,22.70
2017-05-17T02:30:48.960Z,23.32
2017-05-17T02:33:16.932Z,22.92
2017-05-17T02:35:44.501Z,21.32
2017-05-17T02:38:12.049Z,23.20
2017-05-17T02:40:40.030Z,24.46
2017-05-17T02:43:07.584Z,23.98
2017-05-17T02:45:35.130Z,22.96
2017-05-17T02:48:03.103Z,21.14
2017-05-17T02:50:31.052Z,20.02
2017-05-17T02:52:59.012Z,22.56
2017-05-17T02:55:26.585Z,22.40
2017-05-17T02:57:54.532Z,22.64
2017-05-17T03:00:22.087Z,23.12
2017-05-17T03:02:50.057Z,23.48
2017-05-17T03:05:17.992Z,23.04
2017-05-17T03:07:45.544Z,24.00
2017-05-17T03:10:13.516Z,24.80
2017-05-17T03:12:41.072Z,24.20
2017-05-17T03:15:09.025Z,24.08
2017-05-17T03:17:36.592Z,25.44
2017-05-17T03:20:04.143Z,24.02
2017-05-17T03:22:32.058Z,22.18
2017-05-17T03:24:59.664Z,23.40
2017-05-17T03:27:27.219Z,22.90
2017-05-17T03:29:54.775Z,22.08
2017-05-17T03:32:22.743Z,21.52
2017-05-17T03:34:50.293Z,20.00
2017-05-17T03:37:17.835Z,21.00
2017-05-17T03:39:45.407Z,22.32
2017-05-17T03:42:12.961Z,19.82
2017-05-17T03:44:40.924Z,21.00
2017-05-17T03:47:08.497Z,19.86
2017-05-17T03:49:36.443Z,21.78
2017-05-17T03:52:04.005Z,21.44
2017-05-17T03:54:31.576Z,21.44
2017-05-17T03:56:59.136Z,21.62
2017-05-17T03:59:26.700Z,22.90
2017-05-17T04:01:54.273Z,21.80
2017-05-17T04:04:22.218Z,21.28
2017-05-17T04:06:50.165Z,22.72
2017-05-17T04:09:17.741Z,22.62
2017-05-17T04:11:45.300Z,22.08
2017-05-17T04:14:12.851Z,22.00
2017-05-17T04:16:40.824Z,20.76
2017-05-17T04:19:08.777Z,20.66
2017-05-17T04:21:36.718Z,18.50
2017-05-17T04:24:04.691Z,17.84
2017-05-17T04:26:32.236Z,16.16
2017-05-17T04:28:59.798Z,18.02
2017-05-17T04:31:27.380Z,19.06
2017-05-17T04:33:54.919Z,17.18
2017-05-17T04:36:22.475Z,17.40
2017-05-17T04:38:50.164Z,18.22
2017-05-17T04:41:17.724Z,18.48
2017-05-17T04:43:45.668Z,18.58
2017-05-17T04:46:13.632Z,18.66
2017-05-17T04:48:41.575Z,19.50
2017-05-17T04:51:09.529Z,18.64
2017-05-17T04:53:37.101Z,19.22
2017-05-17T04:56:05.094Z,17.66
2017-05-17T04:58:33.007Z,17.96
2017-05-17T05:01:00.981Z,20.20
2017-05-17T05:03:28.924Z,17.10
2017-05-17T05:05:56.494Z,17.76
2017-05-17T05:08:24.459Z,17.34
2017-05-17T05:10:52.441Z,17.72
2017-05-17T05:13:20.376Z,17.76
2017-05-17T05:15:48.492Z,17.48
2017-05-17T05:18:16.028Z,18.94
2017-05-17T05:20:43.969Z,18.48
2017-05-17T05:23:12.297Z,18.12
2017-05-17T05:25:39.844Z,18.04
2017-05-17T05:28:07.785Z,17.86
2017-05-17T05:30:35.403Z,18.62
2017-05-17T05:33:02.936Z,19.38
2017-05-17T05:35:30.484Z,19.12
2017-05-17T05:37:58.130Z,20.12
2017-05-17T05:40:25.684Z,18.76
2017-05-17T05:42:53.583Z,18.66
2017-05-17T05:45:21.588Z,20.32
2017-05-17T05:47:49.131Z,17.82
2017-05-17T05:50:17.080Z,18.14
2017-05-17T05:52:45.044Z,17.90
2017-05-17T05:55:12.592Z,15.30
2017-05-17T05:57:40.140Z,17.18
2017-05-17T06:00:08.109Z,17.04
2017-05-17T06:02:36.052Z,20.58
2017-05-17T06:05:03.592Z,18.72
2017-05-17T06:07:31.555Z,21.06
2017-05-17T06:09:59.535Z,20.66
2017-05-17T06:12:27.090Z,21.76
2017-05-17T06:14:54.633Z,22.66
2017-05-17T06:17:22.191Z,21.22
2017-05-17T06:19:50.141Z,23.70
2017-05-17T06:22:18.076Z,20.74
2017-05-17T06:24:46.073Z,21.34
2017-05-17T06:27:14.008Z,20.82
2017-05-17T06:29:41.600Z,21.46
2017-05-17T06:32:09.172Z,22.20
2017-05-17T06:34:37.116Z,21.16
2017-05-17T06:37:05.052Z,22.44
2017-05-17T06:39:33.011Z,21.24
2017-05-17T06:42:00.552Z,20.50
2017-05-17T06:44:28.501Z,18.10
2017-05-17T06:46:56.460Z,19.94
2017-05-17T06:49:24.009Z,17.64
2017-05-17T06:51:51.939Z,19.32
2017-05-17T06:54:19.522Z,22.20
2017-05-17T06:56:47.464Z,20.44
2017-05-17T06:59:15.008Z,18.92
2017-05-17T07:01:42.967Z,18.74
2017-05-17T07:04:10.509Z,16.88
2017-05-17T07:06:38.052Z,15.84
2017-05-17T07:09:05.617Z,14.64
2017-05-17T07:11:33.557Z,14.78
2017-05-17T07:14:01.497Z,15.48
2017-05-17T07:16:29.465Z,16.28
2017-05-17T07:18:57.010Z,16.22
2017-05-17T07:21:24.947Z,18.12
2017-05-17T07:23:52.512Z,14.82
2017-05-17T07:26:20.055Z,13.84
2017-05-17T07:28:48.025Z,12.24
2017-05-17T07:31:15.590Z,13.30
2017-05-17T07:33:43.524Z,12.04
2017-05-17T07:36:11.072Z,12.34
2017-05-17T07:38:39.042Z,10.96
2017-05-17T07:41:06.589Z,11.12
2017-05-17T07:43:34.128Z,9.40
2017-05-17T07:46:02.090Z,9.78
2017-05-17T07:48:29.637Z,10.24
2017-05-17T07:50:57.587Z,9.50
2017-05-17T07:53:25.148Z,9.22
2017-05-17T07:55:52.692Z,10.26
2017-05-17T07:58:20.653Z,9.34
2017-05-17T08:00:48.197Z,9.74
2017-05-17T08:03:15.737Z,9.58
2017-05-17T08:05:43.306Z,10.88
2017-05-17T08:08:11.244Z,7.80
2017-05-17T08:10:39.179Z,9.76
2017-05-17T08:13:06.748Z,10.14
2017-05-17T08:15:34.679Z,10.04
2017-05-17T08:18:02.621Z,9.48
2017-05-17T08:20:30.182Z,8.66
2017-05-17T08:22:58.493Z,9.82
2017-05-17T08:25:26.038Z,8.16
2017-05-17T08:27:53.609Z,8.44
2017-05-17T08:30:21.164Z,8.16
2017-05-17T08:32:48.701Z,8.56
2017-05-17T08:35:16.664Z,8.92
2017-05-17T08:37:44.612Z,7.88
2017-05-17T08:40:12.548Z,8.00
2017-05-17T08:42:40.510Z,7.46
2017-05-17T08:45:08.053Z,7.42
2017-05-17T08:47:35.593Z,6.46
2017-05-17T08:50:03.164Z,6.34
2017-05-17T08:52:31.473Z,5.84
2017-05-17T08:54:59.007Z,5.64
2017-05-17T08:57:26.573Z,5.88
2017-05-17T08:59:54.100Z,6.40
2017-05-17T09:02:22.032Z,6.40
2017-05-17T09:04:49.993Z,6.48
2017-05-17T09:07:17.531Z,5.84
2017-05-17T09:09:45.455Z,6.18
2017-05-17T09:12:13.413Z,6.36
2017-05-17T09:14:40.984Z,5.68
2017-05-17T09:17:08.567Z,6.50
2017-05-17T09:19:36.532Z,7.00
2017-05-17T09:22:04.077Z,6.06
2017-05-17T09:24:32.013Z,7.34
2017-05-17T09:26:59.977Z,6.80
2017-05-17T09:29:27.507Z,6.24
2017-05-17T09:31:55.053Z,6.22
2017-05-17T09:34:22.613Z,5.96
2017-05-17T09:36:50.160Z,6.14
2017-05-17T09:39:18.101Z,5.70
2017-05-17T09:41:45.664Z,6.02
2017-05-17T09:44:13.599Z,5.44
2017-05-17T09:46:41.137Z,5.70
2017-05-17T09:49:09.104Z,6.06
2017-05-17T09:51:36.648Z,5.84
2017-05-17T09:54:04.584Z,5.88
2017-05-17T09:56:32.548Z,5.76
2017-05-17T09:59:00.474Z,6.68
2017-05-17T10:01:27.974Z,5.76
2017-05-17T10:03:55.971Z,5.92
2017-05-17T10:06:23.524Z,5.52
2017-05-17T10:08:51.027Z,5.86
2017-05-17T10:11:19.034Z,5.44
2017-05-17T10:13:46.581Z,5.50
2017-05-17T10:16:14.507Z,6.30
2017-05-17T10:18:42.089Z,5.36
2017-05-17T10:21:10.053Z,6.22
2017-05-17T10:23:37.993Z,5.26
2017-05-17T10:26:05.580Z,5.92
2017-05-17T10:28:33.129Z,5.92
2017-05-17T10:31:00.672Z,6.04
2017-05-17T10:33:28.236Z,5.02
2017-05-17T10:35:55.794Z,6.10
2017-05-17T10:38:23.344Z,5.72
2017-05-17T10:40:51.317Z,5.62
2017-05-17T10:43:18.865Z,5.50
2017-05-17T10:45:46.820Z,5.54
2017-05-17T10:48:14.397Z,5.94
2017-05-17T10:50:42.324Z,5.76
2017-05-17T10:53:10.256Z,5.90
2017-05-17T10:55:37.819Z,5.36
2017-05-17T10:58:05.368Z,5.90
2017-05-17T11:00:32.912Z,5.22
2017-05-17T11:03:00.869Z,5.82
2017-05-17T11:05:28.810Z,5.62
2017-05-17T11:07:56.744Z,5.62
2017-05-17T11:10:24.716Z,5.74
2017-05-17T11:12:52.259Z,5.72
2017-05-17T11:15:19.796Z,5.30
2017-05-17T11:17:47.365Z,5.60
2017-05-17T11:20:14.908Z,5.56
2017-05-17T11:22:42.447Z,5.70
2017-05-17T11:25:10.424Z,5.38
2017-05-17T11:27:38.458Z,5.58
2017-05-17T11:30:05.953Z,5.10
2017-05-17T11:32:33.920Z,5.52
2017-05-17T11:35:01.889Z,5.34
2017-05-17T11:37:29.833Z,5.86
2017-05-17T11:39:57.378Z,5.80
2017-05-17T11:42:24.946Z,5.14
2017-05-17T11:44:52.485Z,5.68
2017-05-17T11:47:20.036Z,5.40
2017-05-17T11:49:47.599Z,5.50
2017-05-17T11:52:15.681Z,5.84
2017-05-17T11:54:43.225Z,5.08
2017-05-17T11:57:11.177Z,5.44
2017-05-17T11:59:39.123Z,5.28
2017-05-17T12:02:06.677Z,5.50
2017-05-17T12:04:34.212Z,5.60
2017-05-17T12:07:02.177Z,6.16
2017-05-17T12:09:30.103Z,4.88
2017-05-17T12:11:58.036Z,5.44
2017-05-17T12:14:25.612Z,5.80
2017-05-17T12:16:53.150Z,5.60
2017-05-17T12:19:20.705Z,5.90
2017-05-17T12:21:48.668Z,5.22
2017-05-17T12:24:16.609Z,6.16
2017-05-17T12:26:44.156Z,5.12
2017-05-17T12:29:12.125Z,6.12
2017-05-17T12:31:40.059Z,5.36
2017-05-17T12:34:07.616Z,6.20
2017-05-17T12:36:35.179Z,5.62
2017-05-17T12:39:02.714Z,6.12
2017-05-17T12:41:30.265Z,6.60
2017-05-17T12:43:58.225Z,5.66
2017-05-17T12:46:26.155Z,5.28
2017-05-17T12:48:53.688Z,6.10
2017-05-17T12:51:21.647Z,5.66
2017-05-17T12:53:49.192Z,6.22
2017-05-17T12:56:17.123Z,5.80
2017-05-17T12:58:45.087Z,5.40
2017-05-17T13:01:12.631Z,6.00
2017-05-17T13:03:40.160Z,6.82
2017-05-17T13:06:07.734Z,6.16
2017-05-17T13:08:35.301Z,6.62
2017-05-17T13:11:02.836Z,6.18
2017-05-17T13:13:30.763Z,6.62
2017-05-17T13:15:58.319Z,6.68
2017-05-17T13:18:25.856Z,5.92
2017-05-17T13:20:53.399Z,6.48
2017-05-17T13:23:20.954Z,6.62
2017-05-17T13:25:48.492Z,7.18
2017-05-17T13:28:16.030Z,6.72
2017-05-17T13:30:43.596Z,6.44
2017-05-17T13:33:11.528Z,6.42
2017-05-17T13:35:39.060Z,6.32
2017-05-17T13:38:07.019Z,6.16
2017-05-17T13:40:34.559Z,6.70
2017-05-17T13:43:02.100Z,7.10
2017-05-17T13:45:29.664Z,6.60
2017-05-17T13:47:57.600Z,6.68
2017-05-17T13:50:25.131Z,6.66
2017-05-17T13:52:53.088Z,6.40
2017-05-17T13:55:21.103Z,6.60
2017-05-17T13:57:49.028Z,6.98
2017-05-17T14:00:16.996Z,6.84
2017-05-17T14:02:44.932Z,6.32
2017-05-17T14:05:12.467Z,6.60
2017-05-17T14:07:40.428Z,6.66
2017-05-17T14:10:07.972Z,6.88
2017-05-17T14:12:35.504Z,6.34
2017-05-17T14:15:03.069Z,6.32
2017-05-17T14:17:30.613Z,6.76
2017-05-17T14:19:58.154Z,6.58
2017-05-17T14:22:25.720Z,6.08
2017-05-17T14:24:53.251Z,5.48
2017-05-17T14:27:20.808Z,6.80
2017-05-17T14:29:48.764Z,6.28
2017-05-17T14:32:16.720Z,6.04
2017-05-17T14:34:44.668Z,6.24
2017-05-17T14:37:12.229Z,6.00
2017-05-17T14:39:39.756Z,6.46
2017-05-17T14:42:07.322Z,7.08
2017-05-17T14:44:35.244Z,5.88
2017-05-17T14:47:03.184Z,6.08
2017-05-17T14:49:30.964Z,6.10
2017-05-17T14:51:58.514Z,5.64
2017-05-17T14:54:26.053Z,5.54
2017-05-17T14:56:54.007Z,6.40
2017-05-17T14:59:21.539Z,5.44
2017-05-17T15:01:49.475Z,4.96
2017-05-17T15:04:17.433Z,6.42
2017-05-17T15:06:45.364Z,5.86
2017-05-17T15:09:13.261Z,6.00
2017-05-17T15:11:40.852Z,6.42
2017-05-17T15:14:08.393Z,5.44
2017-05-17T15:16:36.325Z,6.00
2017-05-17T15:19:04.361Z,5.36
2017-05-17T15:21:32.283Z,5.70
2017-05-17T15:24:00.225Z,5.38
2017-05-17T15:26:28.304Z,5.58
2017-05-17T15:28:55.849Z,5.70
2017-05-17T15:31:23.784Z,5.10
2017-05-17T15:33:51.344Z,6.28
2017-05-17T15:36:18.874Z,5.48
2017-05-17T15:38:46.816Z,4.80
2017-05-17T15:41:14.780Z,5.26
2017-05-17T15:43:42.715Z,5.48
2017-05-17T15:46:10.260Z,5.56
2017-05-17T15:48:38.208Z,5.58
2017-05-17T15:51:05.749Z,5.62
2017-05-17T15:53:33.684Z,5.34
2017-05-17T15:56:01.648Z,5.46
2017-05-17T15:58:29.192Z,5.20
2017-05-17T16:00:56.733Z,5.08
2017-05-17T16:03:24.689Z,5.40
2017-05-17T16:05:52.633Z,5.18
2017-05-17T16:08:20.175Z,5.22
2017-05-17T16:10:47.738Z,5.02
2017-05-17T16:13:15.277Z,5.22
2017-05-17T16:15:42.817Z,4.80
2017-05-17T16:18:10.377Z,4.84
2017-05-17T16:20:38.320Z,4.90
2017-05-17T16:23:06.216Z,4.90
2017-05-17T16:25:34.216Z,5.44
2017-05-17T16:28:02.154Z,5.36
2017-05-17T16:30:29.682Z,4.88
2017-05-17T16:32:57.651Z,5.16
2017-05-17T16:35:25.189Z,4.96
2017-05-17T16:37:53.125Z,4.78
2017-05-17T16:40:20.697Z,4.92
2017-05-17T16:42:48.998Z,4.78
2017-05-17T16:45:16.540Z,4.88
2017-05-17T16:47:44.105Z,5.80
2017-05-17T16:50:11.631Z,4.92
2017-05-17T16:52:39.169Z,5.24
2017-05-17T16:55:07.128Z,5.30
2017-05-17T16:57:34.659Z,5.04
2017-05-17T17:00:02.187Z,5.36
2017-05-17T17:02:29.796Z,5.50
2017-05-17T17:04:57.749Z,5.84
2017-05-17T17:07:25.284Z,5.54
2017-05-17T17:09:52.857Z,5.16
2017-05-17T17:12:20.783Z,5.30
2017-05-17T17:14:48.715Z,5.68
2017-05-17T17:17:16.277Z,5.60
2017-05-17T17:19:43.817Z,6.66
2017-05-17T17:22:11.352Z,6.08
2017-05-17T17:24:38.927Z,6.00
2017-05-17T17:27:06.483Z,5.68
2017-05-17T17:29:34.424Z,5.80
2017-05-17T17:32:01.988Z,5.62
2017-05-17T17:34:29.551Z,5.44
2017-05-17T17:36:57.116Z,6.68
2017-05-17T17:39:25.081Z,5.94
2017-05-17T17:41:53.045Z,6.78
2017-05-17T17:44:20.580Z,5.80
2017-05-17T17:46:48.512Z,6.68
2017-05-17T17:49:16.471Z,5.76
2017-05-17T17:51:44.018Z,6.14
2017-05-17T17:54:11.557Z,5.50
2017-05-17T17:56:39.112Z,5.94
2017-05-17T17:59:07.039Z,5.70
2017-05-17T18:01:35.012Z,5.62
2017-05-17T18:04:02.567Z,6.10
2017-05-17T18:06:30.164Z,6.08
2017-05-17T18:08:58.217Z,6.32
2017-05-17T18:11:25.830Z,6.46
2017-05-17T18:13:53.781Z,6.12
2017-05-17T18:16:21.380Z,5.96
2017-05-17T18:18:49.157Z,5.58
2017-05-17T18:21:16.803Z,5.62
2017-05-17T18:23:44.423Z,5.92
2017-05-17T18:26:12.595Z,6.22
2017-05-17T18:28:40.234Z,5.86
2017-05-17T18:31:08.216Z,5.70
2017-05-17T18:33:36.033Z,6.28
2017-05-17T18:36:04.125Z,5.82
2017-05-17T18:38:32.235Z,5.76
2017-05-17T18:41:00.324Z,6.66
2017-05-17T18:43:28.550Z,6.30
2017-05-17T18:45:57.231Z,6.38
2017-05-17T18:48:25.475Z,5.76
2017-05-17T18:50:53.968Z,6.28
2017-05-17T18:53:22.428Z,7.16
2017-05-17T18:55:50.922Z,6.14
2017-05-17T18:58:19.595Z,5.54
2017-05-17T19:00:48.858Z,5.90
2017-05-17T19:03:17.778Z,5.74
2017-05-17T19:05:46.527Z,6.44
2017-05-17T19:08:15.069Z,6.00
2017-05-17T19:10:43.639Z,5.94
2017-05-17T19:13:12.273Z,6.10
2017-05-17T19:15:41.256Z,6.48
2017-05-17T19:18:10.730Z,6.88
2017-05-17T19:20:40.226Z,6.76
2017-05-17T19:23:08.953Z,6.64
2017-05-17T19:25:37.507Z,7.28
2017-05-17T19:28:06.571Z,6.82
2017-05-17T19:30:35.119Z,6.78
2017-05-17T19:33:04.071Z,7.54
2017-05-17T19:35:33.200Z,6.30
2017-05-17T19:38:01.752Z,7.52
2017-05-17T19:40:30.295Z,7.00
2017-05-17T19:42:58.912Z,7.44
2017-05-17T19:45:27.893Z,7.38
2017-05-17T19:47:56.469Z,7.58
2017-05-17T19:50:25.730Z,7.20
2017-05-17T19:52:54.651Z,7.48
2017-05-17T19:55:23.192Z,7.12
2017-05-17T19:57:52.014Z,8.30
2017-05-17T20:00:20.965Z,8.50
2017-05-17T20:02:50.634Z,8.14
2017-05-17T20:05:20.355Z,7.72
2017-05-17T20:07:49.323Z,8.20
2017-05-17T20:10:18.616Z,8.72
2017-05-17T20:12:47.293Z,7.58
2017-05-17T20:15:16.160Z,7.62
2017-05-17T20:17:45.202Z,7.82
2017-05-17T20:20:14.115Z,7.50
2017-05-17T20:22:43.177Z,7.52
2017-05-17T20:25:12.045Z,7.78
2017-05-17T20:27:41.253Z,8.06
2017-05-17T20:30:10.212Z,7.72
2017-05-17T20:32:39.240Z,7.42
2017-05-17T20:35:08.167Z,8.16
2017-05-17T20:37:36.732Z,7.68
2017-05-17T20:40:05.798Z,8.06
2017-05-17T20:42:34.681Z,8.14
2017-05-17T20:45:03.574Z,9.36
2017-05-17T20:47:32.141Z,8.30
2017-05-17T20:50:01.047Z,8.70
2017-05-17T20:52:29.533Z,8.94
2017-05-17T20:54:58.135Z,8.78
2017-05-17T20:57:26.467Z,8.80
2017-05-17T20:59:54.652Z,8.84
2017-05-17T21:02:22.926Z,8.12
2017-05-17T21:04:50.843Z,8.18
2017-05-17T21:07:19.198Z,8.60
2017-05-17T21:09:46.872Z,9.16
2017-05-17T21:12:14.820Z,8.20
2017-05-17T21:14:42.429Z,8.00
2017-05-17T21:17:10.396Z,8.52
2017-05-17T21:19:37.963Z,8.58
2017-05-17T21:22:05.516Z,8.98
2017-05-17T21:24:33.088Z,8.30
2017-05-17T21:27:01.037Z,8.82
2017-05-17T21:29:28.968Z,8.12
2017-05-17T21:31:56.927Z,7.42
2017-05-17T21:34:24.472Z,7.44
2017-05-17T21:36:52.413Z,7.32
2017-05-17T21:39:20.369Z,7.44
2017-05-17T21:41:48.304Z,6.90
2017-05-17T21:44:15.843Z,8.84
2017-05-17T21:46:43.920Z,7.78
2017-05-17T21:49:11.856Z,7.78
2017-05-17T21:51:39.393Z,6.08
2017-05-17T21:54:06.955Z,6.96
2017-05-17T21:56:34.487Z,6.82
2017-05-17T21:59:02.028Z,6.32
2017-05-17T22:01:29.983Z,7.14
2017-05-17T22:03:57.921Z,6.36
2017-05-17T22:06:25.457Z,6.22
2017-05-17T22:08:53.520Z,6.28
2017-05-17T22:11:21.056Z,5.52
2017-05-17T22:13:48.992Z,8.04
2017-05-17T22:16:16.945Z,5.84
2017-05-17T22:18:44.879Z,5.80
2017-05-17T22:21:12.420Z,7.16
2017-05-17T22:23:40.376Z,7.30
2017-05-17T22:26:08.318Z,6.00
2017-05-17T22:28:35.852Z,5.68
2017-05-17T22:31:03.416Z,5.80
2017-05-17T22:33:30.947Z,6.42
2017-05-17T22:35:58.485Z,6.88
2017-05-17T22:38:26.440Z,6.26
2017-05-17T22:40:53.971Z,6.82
2017-05-17T22:43:21.904Z,6.48
2017-05-17T22:45:49.471Z,7.08
2017-05-17T22:48:17.409Z,7.14
2017-05-17T22:50:45.340Z,7.32
2017-05-17T22:53:12.903Z,7.52
2017-05-17T22:55:40.861Z,7.76
2017-05-17T22:58:08.803Z,7.28
2017-05-17T23:00:36.751Z,7.14
2017-05-17T23:03:04.308Z,7.00
2017-05-17T23:05:31.844Z,6.68
2017-05-17T23:07:59.375Z,7.78
2017-05-17T23:10:26.953Z,7.20
2017-05-17T23:12:54.492Z,7.28
2017-05-17T23:15:22.391Z,7.52
2017-05-17T23:17:50.380Z,6.30
2017-05-17T23:20:17.915Z,7.18
2017-05-17T23:22:45.848Z,6.28
2017-05-17T23:25:13.808Z,6.14
2017-05-17T23:27:41.733Z,6.10
2017-05-17T23:30:09.669Z,6.40
2017-05-17T23:32:37.233Z,5.88
2017-05-17T23:35:05.176Z,6.88
2017-05-17T23:37:33.097Z,6.98
2017-05-17T23:40:01.047Z,6.18
2017-05-17T23:42:28.588Z,6.52
2017-05-17T23:44:56.125Z,6.64
2017-05-17T23:47:24.075Z,6.74
2017-05-17T23:49:51.624Z,6.92
2017-05-17T23:52:19.555Z,6.58
2017-05-17T23:54:47.521Z,6.88
2017-05-17T23:57:15.450Z,7.04
2017-05-17T23:59:42.995Z,6.52
